sensor_id;sensor_type;location;lat;lon;timestamp;temperature;humidity
23207;DHT22;11773;52.570;13.052;2023-06-14T00:00:38;18.90;99.60
23207;DHT22;11773;52.570;13.052;2023-06-14T00:03:08;18.90;99.60
23207;DHT22;11773;52.570;13.052;2023-06-14T00:05:40;18.90;99.40
23207;DHT22;11773;52.570;13.052;2023-06-14T00:08:11;18.90;99.30
23207;DHT22;11773;52.570;13.052;2023-06-14T00:10:40;19.00;99.30
23207;DHT22;11773;52.570;13.052;2023-06-14T00:13:10;18.90;99.50
23207;DHT22;11773;52.570;13.052;2023-06-14T00:15:40;18.80;99.40
23207;DHT22;11773;52.570;13.052;2023-06-14T00:18:11;18.70;99.70
23207;DHT22;11773;52.570;13.052;2023-06-14T00:20:40;18.80;99.90
23207;DHT22;11773;52.570;13.052;2023-06-14T00:23:10;18.40;99.90
23207;DHT22;11773;52.570;13.052;2023-06-14T00:25:40;18.30;99.90
23207;DHT22;11773;52.570;13.052;2023-06-14T00:28:09;18.40;99.90
23207;DHT22;11773;52.570;13.052;2023-06-14T00:30:39;18.50;99.90
23207;DHT22;11773;52.570;13.052;2023-06-14T00:33:08;18.50;99.90
23207;DHT22;11773;52.570;13.052;2023-06-14T00:35:38;18.40;99.90
23207;DHT22;11773;52.570;13.052;2023-06-14T00:38:08;18.50;99.90
23207;DHT22;11773;52.570;13.052;2023-06-14T00:40:37;18.40;99.90
23207;DHT22;11773;52.570;13.052;2023-06-14T00:43:07;18.20;99.90
23207;DHT22;11773;52.570;13.052;2023-06-14T00:45:36;18.10;99.90
23207;DHT22;11773;52.570;13.052;2023-06-14T00:48:07;18.40;99.90
23207;DHT22;11773;52.570;13.052;2023-06-14T00:50:38;18.30;99.90
23207;DHT22;11773;52.570;13.052;2023-06-14T00:53:08;18.30;99.90
23207;DHT22;11773;52.570;13.052;2023-06-14T00:55:38;18.20;99.90
23207;DHT22;11773;52.570;13.052;2023-06-14T00:58:08;18.20;99.90
23207;DHT22;11773;52.570;13.052;2023-06-14T01:00:38;18.10;99.90
23207;DHT22;11773;52.570;13.052;2023-06-14T01:03:08;18.10;99.90
23207;DHT22;11773;52.570;13.052;2023-06-14T01:05:39;18.20;99.90
23207;DHT22;11773;52.570;13.052;2023-06-14T01:08:24;18.20;99.90
23207;DHT22;11773;52.570;13.052;2023-06-14T01:11:10;18.20;99.90
23207;DHT22;11773;52.570;13.052;2023-06-14T01:13:45;18.00;99.90
23207;DHT22;11773;52.570;13.052;2023-06-14T01:16:16;18.00;99.90
23207;DHT22;11773;52.570;13.052;2023-06-14T01:18:46;17.90;99.90
23207;DHT22;11773;52.570;13.052;2023-06-14T01:21:22;17.90;99.90
23207;DHT22;11773;52.570;13.052;2023-06-14T01:23:53;17.70;99.90
23207;DHT22;11773;52.570;13.052;2023-06-14T01:26:23;17.80;99.90
23207;DHT22;11773;52.570;13.052;2023-06-14T01:28:55;17.70;99.90
23207;DHT22;11773;52.570;13.052;2023-06-14T01:31:26;17.70;99.90
23207;DHT22;11773;52.570;13.052;2023-06-14T01:33:57;17.60;99.90
23207;DHT22;11773;52.570;13.052;2023-06-14T01:36:27;17.50;99.90
23207;DHT22;11773;52.570;13.052;2023-06-14T01:38:59;17.60;99.90
23207;DHT22;11773;52.570;13.052;2023-06-14T01:41:29;17.60;99.90
23207;DHT22;11773;52.570;13.052;2023-06-14T01:44:00;17.50;99.90
23207;DHT22;11773;52.570;13.052;2023-06-14T01:46:31;17.40;99.90
23207;DHT22;11773;52.570;13.052;2023-06-14T01:49:01;17.30;99.90
23207;DHT22;11773;52.570;13.052;2023-06-14T01:51:30;17.20;99.90
23207;DHT22;11773;52.570;13.052;2023-06-14T01:54:00;17.30;99.90
23207;DHT22;11773;52.570;13.052;2023-06-14T01:56:29;17.30;99.90
23207;DHT22;11773;52.570;13.052;2023-06-14T01:59:00;17.20;99.90
23207;DHT22;11773;52.570;13.052;2023-06-14T02:01:29;17.30;99.90
23207;DHT22;11773;52.570;13.052;2023-06-14T02:04:01;17.30;99.90
23207;DHT22;11773;52.570;13.052;2023-06-14T02:06:30;17.00;99.90
23207;DHT22;11773;52.570;13.052;2023-06-14T02:09:01;17.10;99.90
23207;DHT22;11773;52.570;13.052;2023-06-14T02:11:31;17.00;99.90
23207;DHT22;11773;52.570;13.052;2023-06-14T02:14:00;17.10;99.90
23207;DHT22;11773;52.570;13.052;2023-06-14T02:16:30;17.00;99.90
23207;DHT22;11773;52.570;13.052;2023-06-14T02:19:00;16.90;99.90
23207;DHT22;11773;52.570;13.052;2023-06-14T02:21:30;16.90;99.90
23207;DHT22;11773;52.570;13.052;2023-06-14T02:24:00;16.90;99.90
23207;DHT22;11773;52.570;13.052;2023-06-14T02:26:29;16.70;99.90
23207;DHT22;11773;52.570;13.052;2023-06-14T02:28:59;16.80;99.90
23207;DHT22;11773;52.570;13.052;2023-06-14T02:31:30;16.80;99.90
23207;DHT22;11773;52.570;13.052;2023-06-14T02:34:00;16.80;99.90
23207;DHT22;11773;52.570;13.052;2023-06-14T02:36:30;16.80;99.90
23207;DHT22;11773;52.570;13.052;2023-06-14T02:38:59;16.90;99.90
23207;DHT22;11773;52.570;13.052;2023-06-14T02:41:29;16.80;99.90
23207;DHT22;11773;52.570;13.052;2023-06-14T02:43:58;16.70;99.90
23207;DHT22;11773;52.570;13.052;2023-06-14T02:46:28;16.70;99.90
23207;DHT22;11773;52.570;13.052;2023-06-14T02:48:57;16.70;99.90
23207;DHT22;11773;52.570;13.052;2023-06-14T02:51:27;16.60;99.90
23207;DHT22;11773;52.570;13.052;2023-06-14T02:53:57;16.60;99.90
23207;DHT22;11773;52.570;13.052;2023-06-14T02:56:26;16.60;99.90
23207;DHT22;11773;52.570;13.052;2023-06-14T02:58:56;16.70;99.90
23207;DHT22;11773;52.570;13.052;2023-06-14T03:01:26;16.70;99.90
23207;DHT22;11773;52.570;13.052;2023-06-14T03:04:02;16.70;99.90
23207;DHT22;11773;52.570;13.052;2023-06-14T03:06:32;16.50;99.90
23207;DHT22;11773;52.570;13.052;2023-06-14T03:09:02;16.60;99.90
23207;DHT22;11773;52.570;13.052;2023-06-14T03:11:37;16.70;99.90
23207;DHT22;11773;52.570;13.052;2023-06-14T03:14:07;16.60;99.90
23207;DHT22;11773;52.570;13.052;2023-06-14T03:16:37;16.50;99.90
23207;DHT22;11773;52.570;13.052;2023-06-14T03:19:06;16.60;99.90
23207;DHT22;11773;52.570;13.052;2023-06-14T03:21:36;16.40;99.90
23207;DHT22;11773;52.570;13.052;2023-06-14T03:24:06;16.40;99.90
23207;DHT22;11773;52.570;13.052;2023-06-14T03:26:36;16.40;99.90
23207;DHT22;11773;52.570;13.052;2023-06-14T03:29:05;16.60;99.90
23207;DHT22;11773;52.570;13.052;2023-06-14T03:31:35;16.40;99.90
23207;DHT22;11773;52.570;13.052;2023-06-14T03:34:06;16.30;99.90
23207;DHT22;11773;52.570;13.052;2023-06-14T03:36:36;16.50;99.90
23207;DHT22;11773;52.570;13.052;2023-06-14T03:39:05;16.50;99.90
23207;DHT22;11773;52.570;13.052;2023-06-14T03:41:36;16.40;99.90
23207;DHT22;11773;52.570;13.052;2023-06-14T03:44:05;16.20;99.90
23207;DHT22;11773;52.570;13.052;2023-06-14T03:46:35;16.20;99.90
23207;DHT22;11773;52.570;13.052;2023-06-14T03:49:04;16.30;99.90
23207;DHT22;11773;52.570;13.052;2023-06-14T03:51:34;16.30;99.90
23207;DHT22;11773;52.570;13.052;2023-06-14T03:54:04;16.20;99.90
23207;DHT22;11773;52.570;13.052;2023-06-14T03:56:36;16.30;99.90
23207;DHT22;11773;52.570;13.052;2023-06-14T03:59:05;16.20;99.90
23207;DHT22;11773;52.570;13.052;2023-06-14T04:01:35;16.20;99.90
23207;DHT22;11773;52.570;13.052;2023-06-14T04:04:04;16.10;99.90
23207;DHT22;11773;52.570;13.052;2023-06-14T04:06:34;16.20;99.90
23207;DHT22;11773;52.570;13.052;2023-06-14T04:09:04;16.10;99.90
23207;DHT22;11773;52.570;13.052;2023-06-14T04:11:34;16.20;99.90
23207;DHT22;11773;52.570;13.052;2023-06-14T04:14:03;16.00;99.90
23207;DHT22;11773;52.570;13.052;2023-06-14T04:16:34;16.20;99.90
23207;DHT22;11773;52.570;13.052;2023-06-14T04:19:04;16.20;99.90
23207;DHT22;11773;52.570;13.052;2023-06-14T04:21:33;16.30;99.90
23207;DHT22;11773;52.570;13.052;2023-06-14T04:24:03;16.40;99.90
23207;DHT22;11773;52.570;13.052;2023-06-14T04:26:34;16.20;99.90
23207;DHT22;11773;52.570;13.052;2023-06-14T04:29:04;16.10;99.90
23207;DHT22;11773;52.570;13.052;2023-06-14T04:31:34;16.20;99.90
23207;DHT22;11773;52.570;13.052;2023-06-14T04:34:05;16.40;99.90
23207;DHT22;11773;52.570;13.052;2023-06-14T04:36:35;16.40;99.90
23207;DHT22;11773;52.570;13.052;2023-06-14T04:39:05;16.40;99.90
23207;DHT22;11773;52.570;13.052;2023-06-14T04:41:35;16.60;99.90
23207;DHT22;11773;52.570;13.052;2023-06-14T04:44:05;16.70;99.90
23207;DHT22;11773;52.570;13.052;2023-06-14T04:46:35;16.70;99.90
23207;DHT22;11773;52.570;13.052;2023-06-14T04:49:15;16.60;99.90
23207;DHT22;11773;52.570;13.052;2023-06-14T04:51:45;16.80;99.90
23207;DHT22;11773;52.570;13.052;2023-06-14T04:54:17;16.70;99.90
23207;DHT22;11773;52.570;13.052;2023-06-14T04:56:47;16.80;99.90
23207;DHT22;11773;52.570;13.052;2023-06-14T04:59:17;16.90;99.90
23207;DHT22;11773;52.570;13.052;2023-06-14T05:01:47;16.90;99.90
23207;DHT22;11773;52.570;13.052;2023-06-14T05:04:18;17.00;99.90
23207;DHT22;11773;52.570;13.052;2023-06-14T05:06:50;17.00;99.90
23207;DHT22;11773;52.570;13.052;2023-06-14T05:09:21;17.10;99.90
23207;DHT22;11773;52.570;13.052;2023-06-14T05:11:51;17.50;99.90
23207;DHT22;11773;52.570;13.052;2023-06-14T05:14:20;17.90;99.90
23207;DHT22;11773;52.570;13.052;2023-06-14T05:16:50;18.40;99.90
23207;DHT22;11773;52.570;13.052;2023-06-14T05:19:20;18.80;99.90
23207;DHT22;11773;52.570;13.052;2023-06-14T05:21:49;19.20;99.90
23207;DHT22;11773;52.570;13.052;2023-06-14T05:24:19;19.50;99.90
23207;DHT22;11773;52.570;13.052;2023-06-14T05:26:49;19.90;99.90
23207;DHT22;11773;52.570;13.052;2023-06-14T05:29:18;20.00;99.90
23207;DHT22;11773;52.570;13.052;2023-06-14T05:31:48;20.30;99.90
23207;DHT22;11773;52.570;13.052;2023-06-14T05:34:18;20.70;99.90
23207;DHT22;11773;52.570;13.052;2023-06-14T05:36:48;21.10;99.90
23207;DHT22;11773;52.570;13.052;2023-06-14T05:39:17;21.10;99.90
23207;DHT22;11773;52.570;13.052;2023-06-14T05:41:47;20.50;99.90
23207;DHT22;11773;52.570;13.052;2023-06-14T05:44:17;20.40;99.90
23207;DHT22;11773;52.570;13.052;2023-06-14T05:46:47;20.30;99.90
23207;DHT22;11773;52.570;13.052;2023-06-14T05:49:16;20.10;99.90
23207;DHT22;11773;52.570;13.052;2023-06-14T05:51:46;20.00;99.90
23207;DHT22;11773;52.570;13.052;2023-06-14T05:54:16;20.00;99.90
23207;DHT22;11773;52.570;13.052;2023-06-14T05:56:46;20.00;99.90
23207;DHT22;11773;52.570;13.052;2023-06-14T05:59:15;19.90;99.90
23207;DHT22;11773;52.570;13.052;2023-06-14T06:01:45;20.00;99.90
23207;DHT22;11773;52.570;13.052;2023-06-14T06:04:14;20.00;99.90
23207;DHT22;11773;52.570;13.052;2023-06-14T06:06:44;19.80;99.90
23207;DHT22;11773;52.570;13.052;2023-06-14T06:09:15;19.90;99.90
23207;DHT22;11773;52.570;13.052;2023-06-14T06:11:45;19.70;99.90
23207;DHT22;11773;52.570;13.052;2023-06-14T06:14:16;19.80;99.90
23207;DHT22;11773;52.570;13.052;2023-06-14T06:16:45;19.80;99.90
23207;DHT22;11773;52.570;13.052;2023-06-14T06:19:15;19.80;99.90
23207;DHT22;11773;52.570;13.052;2023-06-14T06:21:45;19.70;99.90
23207;DHT22;11773;52.570;13.052;2023-06-14T06:24:14;19.60;99.90
23207;DHT22;11773;52.570;13.052;2023-06-14T06:26:44;19.80;99.90
23207;DHT22;11773;52.570;13.052;2023-06-14T06:29:14;19.90;99.90
23207;DHT22;11773;52.570;13.052;2023-06-14T06:31:43;19.90;99.90
23207;DHT22;11773;52.570;13.052;2023-06-14T06:34:13;19.80;99.90
23207;DHT22;11773;52.570;13.052;2023-06-14T06:36:43;19.90;99.90
23207;DHT22;11773;52.570;13.052;2023-06-14T06:39:12;19.90;99.90
23207;DHT22;11773;52.570;13.052;2023-06-14T06:41:42;20.00;99.90
23207;DHT22;11773;52.570;13.052;2023-06-14T06:44:12;20.00;99.90
23207;DHT22;11773;52.570;13.052;2023-06-14T06:46:43;19.80;99.90
23207;DHT22;11773;52.570;13.052;2023-06-14T06:49:13;19.90;99.90
23207;DHT22;11773;52.570;13.052;2023-06-14T06:51:42;19.80;99.90
23207;DHT22;11773;52.570;13.052;2023-06-14T06:54:14;19.90;99.90
23207;DHT22;11773;52.570;13.052;2023-06-14T06:56:43;20.00;99.90
23207;DHT22;11773;52.570;13.052;2023-06-14T06:59:13;20.10;99.90
23207;DHT22;11773;52.570;13.052;2023-06-14T07:01:44;20.20;99.90
23207;DHT22;11773;52.570;13.052;2023-06-14T07:04:14;20.30;99.90
23207;DHT22;11773;52.570;13.052;2023-06-14T07:06:45;20.40;99.90
23207;DHT22;11773;52.570;13.052;2023-06-14T07:09:15;20.30;99.90
23207;DHT22;11773;52.570;13.052;2023-06-14T07:11:47;20.30;99.90
23207;DHT22;11773;52.570;13.052;2023-06-14T07:14:17;20.40;99.90
23207;DHT22;11773;52.570;13.052;2023-06-14T07:16:46;20.50;99.90
23207;DHT22;11773;52.570;13.052;2023-06-14T07:19:17;20.60;99.90
23207;DHT22;11773;52.570;13.052;2023-06-14T07:21:46;20.80;99.90
23207;DHT22;11773;52.570;13.052;2023-06-14T07:24:16;20.90;99.90
23207;DHT22;11773;52.570;13.052;2023-06-14T07:26:46;21.00;99.90
23207;DHT22;11773;52.570;13.052;2023-06-14T07:29:16;21.20;99.90
23207;DHT22;11773;52.570;13.052;2023-06-14T07:31:46;21.40;99.90
23207;DHT22;11773;52.570;13.052;2023-06-14T07:34:15;21.40;99.90
23207;DHT22;11773;52.570;13.052;2023-06-14T07:36:45;21.40;99.90
23207;DHT22;11773;52.570;13.052;2023-06-14T07:39:15;21.40;99.90
23207;DHT22;11773;52.570;13.052;2023-06-14T07:41:45;21.30;99.90
23207;DHT22;11773;52.570;13.052;2023-06-14T07:44:14;21.40;99.90
23207;DHT22;11773;52.570;13.052;2023-06-14T07:46:44;21.30;99.90
23207;DHT22;11773;52.570;13.052;2023-06-14T07:49:15;21.40;99.90
23207;DHT22;11773;52.570;13.052;2023-06-14T07:51:45;21.30;99.90
23207;DHT22;11773;52.570;13.052;2023-06-14T07:54:15;21.40;99.90
23207;DHT22;11773;52.570;13.052;2023-06-14T07:56:45;21.60;99.90
23207;DHT22;11773;52.570;13.052;2023-06-14T07:59:15;21.60;99.90
23207;DHT22;11773;52.570;13.052;2023-06-14T08:01:45;21.80;99.90
23207;DHT22;11773;52.570;13.052;2023-06-14T08:04:16;21.90;99.90
23207;DHT22;11773;52.570;13.052;2023-06-14T08:06:47;21.60;99.90
23207;DHT22;11773;52.570;13.052;2023-06-14T08:09:17;21.70;99.90
23207;DHT22;11773;52.570;13.052;2023-06-14T08:11:46;21.80;99.90
23207;DHT22;11773;52.570;13.052;2023-06-14T08:14:16;22.10;99.90
23207;DHT22;11773;52.570;13.052;2023-06-14T08:16:46;22.70;99.90
23207;DHT22;11773;52.570;13.052;2023-06-14T08:19:15;22.80;99.90
23207;DHT22;11773;52.570;13.052;2023-06-14T08:21:45;23.00;99.90
23207;DHT22;11773;52.570;13.052;2023-06-14T08:24:15;23.20;99.00
23207;DHT22;11773;52.570;13.052;2023-06-14T08:26:46;23.40;99.80
23207;DHT22;11773;52.570;13.052;2023-06-14T08:29:16;23.90;99.50
23207;DHT22;11773;52.570;13.052;2023-06-14T08:31:47;23.90;99.20
23207;DHT22;11773;52.570;13.052;2023-06-14T08:34:17;24.00;98.90
23207;DHT22;11773;52.570;13.052;2023-06-14T08:36:46;23.80;98.60
23207;DHT22;11773;52.570;13.052;2023-06-14T08:39:16;23.90;98.50
23207;DHT22;11773;52.570;13.052;2023-06-14T08:41:47;23.90;98.60
23207;DHT22;11773;52.570;13.052;2023-06-14T08:44:17;24.20;98.50
23207;DHT22;11773;52.570;13.052;2023-06-14T08:46:48;24.20;98.00
23207;DHT22;11773;52.570;13.052;2023-06-14T08:49:20;24.10;97.60
23207;DHT22;11773;52.570;13.052;2023-06-14T08:51:54;24.20;97.40
23207;DHT22;11773;52.570;13.052;2023-06-14T08:54:29;24.00;97.90
23207;DHT22;11773;52.570;13.052;2023-06-14T08:57:00;24.00;97.30
23207;DHT22;11773;52.570;13.052;2023-06-14T08:59:32;24.20;97.60
23207;DHT22;11773;52.570;13.052;2023-06-14T09:02:04;24.60;97.10
23207;DHT22;11773;52.570;13.052;2023-06-14T09:04:36;24.40;96.90
23207;DHT22;11773;52.570;13.052;2023-06-14T09:07:07;24.50;96.90
23207;DHT22;11773;52.570;13.052;2023-06-14T09:09:41;25.00;96.60
23207;DHT22;11773;52.570;13.052;2023-06-14T09:12:12;25.10;96.80
23207;DHT22;11773;52.570;13.052;2023-06-14T09:14:41;25.30;96.10
23207;DHT22;11773;52.570;13.052;2023-06-14T09:17:13;25.10;96.10
23207;DHT22;11773;52.570;13.052;2023-06-14T09:19:45;25.00;95.90
23207;DHT22;11773;52.570;13.052;2023-06-14T09:22:16;24.70;96.60
23207;DHT22;11773;52.570;13.052;2023-06-14T09:24:46;24.60;96.40
23207;DHT22;11773;52.570;13.052;2023-06-14T09:27:16;24.50;96.40
23207;DHT22;11773;52.570;13.052;2023-06-14T09:29:46;24.60;96.00
23207;DHT22;11773;52.570;13.052;2023-06-14T09:32:15;24.60;96.50
23207;DHT22;11773;52.570;13.052;2023-06-14T09:34:46;24.70;96.50
23207;DHT22;11773;52.570;13.052;2023-06-14T09:37:31;24.90;96.30
23207;DHT22;11773;52.570;13.052;2023-06-14T09:40:03;24.50;96.00
23207;DHT22;11773;52.570;13.052;2023-06-14T09:42:35;24.50;95.80
23207;DHT22;11773;52.570;13.052;2023-06-14T09:45:05;24.60;95.60
23207;DHT22;11773;52.570;13.052;2023-06-14T09:47:35;24.80;95.70
23207;DHT22;11773;52.570;13.052;2023-06-14T09:50:06;25.00;95.60
23207;DHT22;11773;52.570;13.052;2023-06-14T09:52:36;24.80;95.40
23207;DHT22;11773;52.570;13.052;2023-06-14T09:55:09;24.60;95.40
23207;DHT22;11773;52.570;13.052;2023-06-14T09:57:42;24.70;95.40
23207;DHT22;11773;52.570;13.052;2023-06-14T10:00:15;24.90;95.30
23207;DHT22;11773;52.570;13.052;2023-06-14T10:02:49;25.00;95.30
23207;DHT22;11773;52.570;13.052;2023-06-14T10:05:22;25.00;95.70
23207;DHT22;11773;52.570;13.052;2023-06-14T10:08:08;25.10;95.30
23207;DHT22;11773;52.570;13.052;2023-06-14T10:10:38;25.10;94.80
23207;DHT22;11773;52.570;13.052;2023-06-14T10:13:08;25.30;94.90
23207;DHT22;11773;52.570;13.052;2023-06-14T10:16:00;25.70;94.80
23207;DHT22;11773;52.570;13.052;2023-06-14T10:19:03;25.60;94.20
23207;DHT22;11773;52.570;13.052;2023-06-14T10:22:21;25.50;93.50
23207;DHT22;11773;52.570;13.052;2023-06-14T10:24:52;25.40;93.80
23207;DHT22;11773;52.570;13.052;2023-06-14T10:27:22;25.30;94.30
23207;DHT22;11773;52.570;13.052;2023-06-14T10:32:30;25.60;94.20
23207;DHT22;11773;52.570;13.052;2023-06-14T10:37:34;25.30;93.90
23207;DHT22;11773;52.570;13.052;2023-06-14T10:40:06;25.40;93.90
23207;DHT22;11773;52.570;13.052;2023-06-14T10:42:36;25.30;93.60
23207;DHT22;11773;52.570;13.052;2023-06-14T10:45:06;25.60;93.50
23207;DHT22;11773;52.570;13.052;2023-06-14T10:47:37;25.60;93.70
23207;DHT22;11773;52.570;13.052;2023-06-14T10:50:08;25.90;93.60
23207;DHT22;11773;52.570;13.052;2023-06-14T10:52:42;25.90;93.30
23207;DHT22;11773;52.570;13.052;2023-06-14T10:55:15;25.90;93.20
23207;DHT22;11773;52.570;13.052;2023-06-14T10:57:52;25.80;93.40
23207;DHT22;11773;52.570;13.052;2023-06-14T11:00:28;25.60;92.90
23207;DHT22;11773;52.570;13.052;2023-06-14T11:03:28;25.50;93.60
23207;DHT22;11773;52.570;13.052;2023-06-14T11:05:55;25.50;93.80
23207;DHT22;11773;52.570;13.052;2023-06-14T11:11:32;25.40;93.20
23207;DHT22;11773;52.570;13.052;2023-06-14T11:14:02;25.60;94.00
23207;DHT22;11773;52.570;13.052;2023-06-14T11:16:33;25.30;93.60
23207;DHT22;11773;52.570;13.052;2023-06-14T11:19:02;25.60;93.80
23207;DHT22;11773;52.570;13.052;2023-06-14T11:21:33;25.90;93.50
23207;DHT22;11773;52.570;13.052;2023-06-14T11:24:03;26.00;93.00
23207;DHT22;11773;52.570;13.052;2023-06-14T11:26:32;26.30;92.60
23207;DHT22;11773;52.570;13.052;2023-06-14T11:29:03;26.10;92.10
23207;DHT22;11773;52.570;13.052;2023-06-14T11:31:33;26.30;91.80
23207;DHT22;11773;52.570;13.052;2023-06-14T11:34:03;26.10;92.90
23207;DHT22;11773;52.570;13.052;2023-06-14T11:36:34;26.10;91.20
23207;DHT22;11773;52.570;13.052;2023-06-14T11:39:05;26.20;93.30
23207;DHT22;11773;52.570;13.052;2023-06-14T11:41:41;26.10;91.20
23207;DHT22;11773;52.570;13.052;2023-06-14T11:44:12;26.00;90.90
23207;DHT22;11773;52.570;13.052;2023-06-14T11:46:41;26.20;92.20
23207;DHT22;11773;52.570;13.052;2023-06-14T11:49:11;26.50;92.60
23207;DHT22;11773;52.570;13.052;2023-06-14T11:51:42;26.60;91.60
23207;DHT22;11773;52.570;13.052;2023-06-14T11:54:12;26.20;90.70
23207;DHT22;11773;52.570;13.052;2023-06-14T11:56:42;26.20;90.80
23207;DHT22;11773;52.570;13.052;2023-06-14T11:59:13;26.30;91.30
23207;DHT22;11773;52.570;13.052;2023-06-14T12:01:43;26.30;91.40
23207;DHT22;11773;52.570;13.052;2023-06-14T12:04:14;26.40;90.70
23207;DHT22;11773;52.570;13.052;2023-06-14T12:06:45;26.70;91.40
23207;DHT22;11773;52.570;13.052;2023-06-14T12:09:16;26.50;90.60
23207;DHT22;11773;52.570;13.052;2023-06-14T12:11:46;26.60;91.20
23207;DHT22;11773;52.570;13.052;2023-06-14T12:14:16;26.50;90.60
23207;DHT22;11773;52.570;13.052;2023-06-14T12:16:45;26.70;90.60
23207;DHT22;11773;52.570;13.052;2023-06-14T12:19:16;26.60;90.30
23207;DHT22;11773;52.570;13.052;2023-06-14T12:21:47;26.60;89.90
23207;DHT22;11773;52.570;13.052;2023-06-14T12:24:18;26.70;90.60
23207;DHT22;11773;52.570;13.052;2023-06-14T12:26:48;26.60;90.30
23207;DHT22;11773;52.570;13.052;2023-06-14T12:29:20;26.90;90.50
23207;DHT22;11773;52.570;13.052;2023-06-14T12:31:49;26.80;89.40
23207;DHT22;11773;52.570;13.052;2023-06-14T12:34:21;27.10;89.80
23207;DHT22;11773;52.570;13.052;2023-06-14T12:36:51;27.10;89.10
23207;DHT22;11773;52.570;13.052;2023-06-14T12:39:25;27.20;88.70
23207;DHT22;11773;52.570;13.052;2023-06-14T12:41:54;26.80;90.10
23207;DHT22;11773;52.570;13.052;2023-06-14T12:44:24;26.70;88.30
23207;DHT22;11773;52.570;13.052;2023-06-14T12:46:53;26.90;89.60
23207;DHT22;11773;52.570;13.052;2023-06-14T12:49:23;26.70;89.70
23207;DHT22;11773;52.570;13.052;2023-06-14T12:51:53;27.10;88.90
23207;DHT22;11773;52.570;13.052;2023-06-14T12:54:22;26.90;90.00
23207;DHT22;11773;52.570;13.052;2023-06-14T12:56:55;27.20;89.10
23207;DHT22;11773;52.570;13.052;2023-06-14T12:59:24;27.20;89.50
23207;DHT22;11773;52.570;13.052;2023-06-14T13:01:55;27.10;89.10
23207;DHT22;11773;52.570;13.052;2023-06-14T13:04:25;27.10;89.80
23207;DHT22;11773;52.570;13.052;2023-06-14T13:06:55;27.20;89.90
23207;DHT22;11773;52.570;13.052;2023-06-14T13:09:24;27.00;87.00
23207;DHT22;11773;52.570;13.052;2023-06-14T13:11:54;27.30;87.70
23207;DHT22;11773;52.570;13.052;2023-06-14T13:14:24;27.30;86.10
23207;DHT22;11773;52.570;13.052;2023-06-14T13:16:54;27.30;88.30
23207;DHT22;11773;52.570;13.052;2023-06-14T13:19:23;27.30;89.00
23207;DHT22;11773;52.570;13.052;2023-06-14T13:21:53;27.10;86.60
23207;DHT22;11773;52.570;13.052;2023-06-14T13:24:23;27.20;85.50
23207;DHT22;11773;52.570;13.052;2023-06-14T13:26:53;27.20;88.00
23207;DHT22;11773;52.570;13.052;2023-06-14T13:29:24;27.20;90.10
23207;DHT22;11773;52.570;13.052;2023-06-14T13:31:55;27.20;87.80
23207;DHT22;11773;52.570;13.052;2023-06-14T13:34:24;27.10;86.40
23207;DHT22;11773;52.570;13.052;2023-06-14T13:36:54;27.10;87.30
23207;DHT22;11773;52.570;13.052;2023-06-14T13:39:27;26.80;84.00
23207;DHT22;11773;52.570;13.052;2023-06-14T13:41:56;26.90;88.90
23207;DHT22;11773;52.570;13.052;2023-06-14T13:44:26;27.30;88.90
23207;DHT22;11773;52.570;13.052;2023-06-14T13:46:55;27.20;85.70
23207;DHT22;11773;52.570;13.052;2023-06-14T13:49:25;27.20;83.80
23207;DHT22;11773;52.570;13.052;2023-06-14T13:51:55;27.10;88.20
23207;DHT22;11773;52.570;13.052;2023-06-14T13:54:25;27.10;87.10
23207;DHT22;11773;52.570;13.052;2023-06-14T13:56:56;26.90;88.00
23207;DHT22;11773;52.570;13.052;2023-06-14T13:59:25;26.70;88.90
23207;DHT22;11773;52.570;13.052;2023-06-14T14:01:55;26.80;90.30
23207;DHT22;11773;52.570;13.052;2023-06-14T14:04:26;26.60;90.40
23207;DHT22;11773;52.570;13.052;2023-06-14T14:06:56;26.40;88.20
23207;DHT22;11773;52.570;13.052;2023-06-14T14:09:26;26.20;90.80
23207;DHT22;11773;52.570;13.052;2023-06-14T14:11:55;26.30;90.70
23207;DHT22;11773;52.570;13.052;2023-06-14T14:14:26;26.50;91.30
23207;DHT22;11773;52.570;13.052;2023-06-14T14:16:56;26.40;88.00
23207;DHT22;11773;52.570;13.052;2023-06-14T14:19:28;26.10;88.30
23207;DHT22;11773;52.570;13.052;2023-06-14T14:21:57;26.30;89.60
23207;DHT22;11773;52.570;13.052;2023-06-14T14:24:28;26.30;90.00
23207;DHT22;11773;52.570;13.052;2023-06-14T14:26:58;26.00;90.60
23207;DHT22;11773;52.570;13.052;2023-06-14T14:29:28;26.10;90.00
23207;DHT22;11773;52.570;13.052;2023-06-14T14:31:58;26.20;89.90
23207;DHT22;11773;52.570;13.052;2023-06-14T14:34:27;26.10;88.90
23207;DHT22;11773;52.570;13.052;2023-06-14T14:36:57;25.90;88.90
23207;DHT22;11773;52.570;13.052;2023-06-14T14:39:27;26.00;90.70
23207;DHT22;11773;52.570;13.052;2023-06-14T14:41:58;25.90;89.90
23207;DHT22;11773;52.570;13.052;2023-06-14T14:44:27;25.80;89.50
23207;DHT22;11773;52.570;13.052;2023-06-14T14:46:57;25.70;90.10
23207;DHT22;11773;52.570;13.052;2023-06-14T14:49:27;25.80;90.20
23207;DHT22;11773;52.570;13.052;2023-06-14T14:51:57;25.80;91.10
23207;DHT22;11773;52.570;13.052;2023-06-14T14:54:28;25.70;90.20
23207;DHT22;11773;52.570;13.052;2023-06-14T14:56:58;25.80;90.00
23207;DHT22;11773;52.570;13.052;2023-06-14T14:59:28;25.50;89.50
23207;DHT22;11773;52.570;13.052;2023-06-14T15:01:57;25.80;90.70
23207;DHT22;11773;52.570;13.052;2023-06-14T15:04:27;25.70;90.90
23207;DHT22;11773;52.570;13.052;2023-06-14T15:06:57;25.80;91.00
23207;DHT22;11773;52.570;13.052;2023-06-14T15:09:26;25.70;90.70
23207;DHT22;11773;52.570;13.052;2023-06-14T15:11:56;25.90;90.00
23207;DHT22;11773;52.570;13.052;2023-06-14T15:14:26;25.90;90.30
23207;DHT22;11773;52.570;13.052;2023-06-14T15:16:55;25.80;90.20
23207;DHT22;11773;52.570;13.052;2023-06-14T15:19:26;25.70;90.50
23207;DHT22;11773;52.570;13.052;2023-06-14T15:21:55;25.70;89.40
23207;DHT22;11773;52.570;13.052;2023-06-14T15:24:26;25.70;90.10
23207;DHT22;11773;52.570;13.052;2023-06-14T15:27:00;25.70;90.20
23207;DHT22;11773;52.570;13.052;2023-06-14T15:29:30;25.70;91.30
23207;DHT22;11773;52.570;13.052;2023-06-14T15:32:01;25.70;90.40
23207;DHT22;11773;52.570;13.052;2023-06-14T15:34:33;25.70;90.30
23207;DHT22;11773;52.570;13.052;2023-06-14T15:37:03;25.50;90.50
23207;DHT22;11773;52.570;13.052;2023-06-14T15:39:32;25.50;90.60
23207;DHT22;11773;52.570;13.052;2023-06-14T15:42:03;25.40;91.60
23207;DHT22;11773;52.570;13.052;2023-06-14T15:44:34;25.30;90.50